Time;durP1;ratioP1;P1;durP2;ratioP2;P2;SDS_P1;SDS_P2;PMS_P1;PMS_P2;Temp;Humidity;BMP_temperature;BMP_pressure;BME280_temperature;BME280_humidity;BME280_pressure;Samples;Min_cycle;Max_cycle;Signal;HPM_P1;HPM_P2
2023/03/06 06:24:26;;;;;;;2.55;0.80;;;13.80;99.90;;;;;;5091881;27;20424;-62
2023/03/06 06:26:54;;;;;;;3.30;1.50;;;14.00;99.90;;;;;;5091710;28;20362;-64
2023/03/06 06:29:21;;;;;;;2.88;0.90;;;14.40;99.90;;;;;;5092714;28;20074;-63
2023/03/06 06:31:47;;;;;;;3.33;1.20;;;14.50;99.90;;;;;;5091110;28;20034;-68
2023/03/06 06:34:13;;;;;;;2.67;0.70;;;14.50;99.90;;;;;;5091450;28;20036;-63
2023/03/06 06:36:40;;;;;;;2.22;0.93;;;14.40;99.90;;;;;;5075086;28;20055;-63
2023/03/06 06:39:07;;;;;;;4.25;0.88;;;14.40;99.90;;;;;;5091952;28;20024;-63
2023/03/06 06:41:34;;;;;;;2.35;0.73;;;14.40;99.90;;;;;;5090893;28;20038;-62
2023/03/06 06:44:03;;;;;;;1.70;0.77;;;14.40;99.90;;;;;;5091968;28;20037;-62
2023/03/06 06:46:28;;;;;;;1.65;0.60;;;14.40;99.90;;;;;;5090492;28;20043;-63
2023/03/06 06:48:54;;;;;;;4.70;0.70;;;14.40;99.90;;;;;;5090898;28;20029;-62
2023/03/06 06:51:21;;;;;;;2.55;0.73;;;14.30;99.90;;;;;;5090427;28;20051;-62
2023/03/06 06:53:50;;;;;;;0.73;0.52;;;14.30;99.90;;;;;;5091889;28;20154;-62
2023/03/06 06:56:16;;;;;;;5.07;0.75;;;14.30;99.90;;;;;;5090758;28;20032;-62
2023/03/06 06:58:42;;;;;;;2.92;0.70;;;14.30;99.90;;;;;;5091700;28;20092;-63
2023/03/06 07:01:10;;;;;;;3.47;0.90;;;14.30;99.90;;;;;;5090323;28;20427;-62
2023/03/06 07:03:36;;;;;;;2.00;0.80;;;14.30;99.90;;;;;;5091825;28;20039;-63
2023/03/06 07:06:03;;;;;;;1.70;0.80;;;14.30;99.90;;;;;;5083666;28;20027;-65
2023/03/06 07:08:29;;;;;;;2.38;0.70;;;14.30;99.90;;;;;;5076114;28;20032;-63
2023/03/06 07:10:56;;;;;;;3.08;0.80;;;14.30;99.90;;;;;;5072174;28;20029;-63
2023/03/06 07:13:21;;;;;;;3.88;1.17;;;14.40;99.90;;;;;;5081891;28;20335;-63
2023/03/06 07:15:47;;;;;;;5.40;0.90;;;14.40;99.90;;;;;;5072862;28;20114;-63
2023/03/06 07:18:13;;;;;;;7.78;1.10;;;14.30;99.90;;;;;;5089822;28;20299;-63
2023/03/06 07:20:40;;;;;;;4.18;0.90;;;14.40;99.90;;;;;;5091220;28;20107;-64
2023/03/06 07:23:12;;;;;;;1.90;0.80;;;14.40;99.90;;;;;;5090938;28;20040;-63
2023/03/06 07:25:38;;;;;;;3.90;0.90;;;14.40;99.90;;;;;;5090813;28;20059;-64
2023/03/06 07:28:05;;;;;;;3.88;0.90;;;14.40;99.90;;;;;;5091132;28;20050;-63
2023/03/06 07:30:31;;;;;;;2.88;0.90;;;14.40;99.90;;;;;;5091099;28;20059;-63
2023/03/06 07:32:58;;;;;;;4.18;1.00;;;14.40;99.90;;;;;;5091209;28;20040;-63
2023/03/06 07:35:24;;;;;;;2.88;0.90;;;14.40;99.90;;;;;;5080392;28;20037;-63
2023/03/06 07:37:51;;;;;;;3.53;1.00;;;14.40;99.90;;;;;;5068289;28;20052;-63
2023/03/06 07:40:18;;;;;;;3.28;1.10;;;14.40;99.90;;;;;;5069889;28;20729;-63
2023/03/06 07:42:45;;;;;;;3.70;1.15;;;14.40;99.90;;;;;;5071899;28;20028;-63
2023/03/06 07:45:15;;;;;;;4.82;1.10;;;14.40;99.90;;;;;;5069565;28;20032;-63
2023/03/06 07:47:41;;;;;;;4.07;0.90;;;14.40;99.90;;;;;;5065426;28;20025;-64
2023/03/06 07:50:08;;;;;;;2.63;1.10;;;14.40;99.90;;;;;;5073847;28;20029;-64
2023/03/06 07:52:34;;;;;;;5.43;0.90;;;14.40;99.90;;;;;;5071993;28;20082;-64
2023/03/06 07:55:00;;;;;;;3.83;1.30;;;14.40;99.90;;;;;;5075044;28;20036;-64
2023/03/06 07:57:26;;;;;;;3.70;1.00;;;14.40;99.90;;;;;;5074240;28;20556;-64
2023/03/06 07:59:51;;;;;;;3.70;1.10;;;14.50;99.90;;;;;;5075271;28;20029;-64
2023/03/06 08:02:17;;;;;;;3.15;1.05;;;14.50;99.90;;;;;;5074151;28;20136;-63
2023/03/06 08:04:43;;;;;;;3.40;1.20;;;14.50;99.90;;;;;;5076012;28;20028;-64
2023/03/06 08:07:09;;;;;;;3.95;1.17;;;14.60;99.90;;;;;;5065287;28;20033;-64
2023/03/06 08:09:35;;;;;;;5.05;1.00;;;14.60;99.90;;;;;;5069428;28;20033;-62
2023/03/06 08:12:01;;;;;;;9.77;3.75;;;14.60;99.90;;;;;;5070495;28;20027;-62
2023/03/06 08:14:27;;;;;;;9.20;5.07;;;14.90;99.90;;;;;;5073483;28;21896;-63
2023/03/06 08:16:56;;;;;;;6.10;1.50;;;15.20;99.90;;;;;;5067635;28;20074;-64
2023/03/06 08:19:22;;;;;;;3.97;1.15;;;15.30;99.90;;;;;;5074096;28;20031;-63
2023/03/06 08:21:47;;;;;;;3.42;1.40;;;15.30;99.90;;;;;;5077413;28;20111;-63
2023/03/06 08:24:15;;;;;;;2.22;1.10;;;15.40;99.90;;;;;;5077309;28;20083;-62
2023/03/06 08:26:41;;;;;;;3.28;1.17;;;15.40;99.90;;;;;;5074937;28;20037;-63
2023/03/06 08:29:09;;;;;;;2.33;1.08;;;15.40;99.90;;;;;;5074968;28;20029;-62
2023/03/06 08:31:38;;;;;;;3.13;1.00;;;15.30;99.90;;;;;;5076029;28;20031;-62
2023/03/06 08:34:06;;;;;;;4.93;0.90;;;15.40;99.90;;;;;;5075143;28;20071;-62
2023/03/06 08:36:33;;;;;;;5.95;0.98;;;15.30;99.90;;;;;;5075576;28;20033;-64
2023/03/06 08:38:59;;;;;;;3.50;1.10;;;15.40;99.90;;;;;;5075057;28;20331;-63
2023/03/06 08:41:26;;;;;;;3.53;0.93;;;15.40;99.90;;;;;;5075169;28;20033;-63
2023/03/06 08:43:52;;;;;;;2.40;1.08;;;15.40;99.90;;;;;;5075392;28;20579;-63
2023/03/06 08:46:19;;;;;;;8.63;5.63;;;15.40;99.90;;;;;;5073105;28;20439;-64
2023/03/06 08:48:48;;;;;;;6.68;2.10;;;15.70;99.90;;;;;;5072895;28;20031;-64
2023/03/06 08:51:15;;;;;;;3.88;1.40;;;15.90;99.90;;;;;;5074020;28;20078;-64
2023/03/06 08:53:42;;;;;;;5.32;1.33;;;15.90;99.90;;;;;;5072776;28;20418;-64
2023/03/06 08:56:17;;;;;;;5.50;1.10;;;15.80;99.90;;;;;;5071962;28;20032;-64
2023/03/06 08:58:43;;;;;;;2.40;0.70;;;15.80;99.90;;;;;;5072499;28;20450;-65
2023/03/06 09:01:21;;;;;;;1.98;0.90;;;15.70;99.90;;;;;;5072357;28;20104;-64
2023/03/06 09:03:47;;;;;;;1.65;0.80;;;15.60;99.90;;;;;;5071049;28;20051;-64
2023/03/06 09:06:13;;;;;;;2.40;0.70;;;15.60;99.90;;;;;;5072141;28;20031;-65
2023/03/06 09:08:43;;;;;;;6.40;4.78;;;15.50;99.90;;;;;;5071568;28;20040;-65
2023/03/06 09:11:11;;;;;;;6.15;1.65;;;15.60;99.90;;;;;;5062859;28;20029;-63
2023/03/06 09:13:36;;;;;;;4.55;1.40;;;15.70;99.90;;;;;;5054885;28;20036;-64
2023/03/06 09:16:03;;;;;;;7.15;1.20;;;15.70;99.90;;;;;;5055183;28;20323;-66
2023/03/06 09:18:28;;;;;;;4.00;1.30;;;15.70;99.90;;;;;;5060085;28;20040;-64
2023/03/06 09:20:55;;;;;;;3.20;1.10;;;15.70;99.90;;;;;;5074041;28;20024;-64
2023/03/06 09:23:21;;;;;;;3.63;0.88;;;15.70;99.90;;;;;;5074394;28;20044;-63
2023/03/06 09:25:54;;;;;;;6.57;1.33;;;15.70;99.90;;;;;;5074884;28;20036;-63
2023/03/06 09:28:20;;;;;;;8.23;1.60;;;15.90;99.90;;;;;;5074311;28;20040;-62
2023/03/06 09:30:47;;;;;;;8.25;1.30;;;16.20;99.90;;;;;;5073238;28;20024;-63
2023/03/06 09:33:13;;;;;;;7.65;1.05;;;16.20;99.90;;;;;;5064115;28;20029;-63
2023/03/06 09:36:12;;;;;;;5.97;1.10;;;16.20;99.90;;;;;;5054143;28;20064;-63
2023/03/06 09:38:38;;;;;;;4.43;1.00;;;16.10;99.90;;;;;;5053026;28;20119;-62
2023/03/06 09:41:17;;;;;;;1.88;0.80;;;16.00;99.90;;;;;;5073913;28;20171;-63
2023/03/06 09:43:47;;;;;;;4.22;1.02;;;16.00;99.90;;;;;;5074016;28;20031;-63
2023/03/06 09:46:44;;;;;;;3.38;0.98;;;15.90;99.90;;;;;;5073973;28;20066;-64
2023/03/06 09:49:39;;;;;;;4.67;1.00;;;15.90;99.90;;;;;;5074299;28;20028;-63
2023/03/06 09:52:23;;;;;;;4.47;1.10;;;15.80;99.90;;;;;;5074543;28;20265;-67
2023/03/06 09:54:57;;;;;;;4.68;0.90;;;15.80;99.90;;;;;;5074892;28;20037;-64
2023/03/06 09:57:29;;;;;;;4.97;1.10;;;15.80;99.90;;;;;;5072872;28;20036;-63
2023/03/06 10:00:04;;;;;;;2.65;0.85;;;15.80;99.90;;;;;;5072739;28;20025;-63
2023/03/06 10:02:49;;;;;;;4.20;1.10;;;15.80;99.90;;;;;;5072253;28;20037;-63
2023/03/06 10:05:21;;;;;;;3.85;0.90;;;15.80;99.90;;;;;;5073388;28;20028;-63
2023/03/06 10:08:02;;;;;;;3.00;0.82;;;15.70;99.90;;;;;;5073497;28;20050;-63
2023/03/06 10:10:57;;;;;;;1.75;0.77;;;15.80;99.90;;;;;;5072765;28;20060;-63
2023/03/06 10:13:35;;;;;;;2.22;0.85;;;15.80;99.90;;;;;;5070990;28;20029;-64
2023/03/06 10:16:24;;;;;;;2.30;0.60;;;15.80;99.90;;;;;;5074206;28;20024;-63
2023/03/06 10:18:50;;;;;;;3.15;0.80;;;15.80;99.90;;;;;;5074460;28;20107;-65
2023/03/06 10:21:28;;;;;;;7.88;1.17;;;15.80;99.90;;;;;;5074529;28;20029;-64
2023/03/06 10:24:12;;;;;;;11.65;7.45;;;15.80;99.90;;;;;;5074214;28;20426;-64
2023/03/06 10:26:51;;;;;;;6.82;2.60;;;16.20;99.90;;;;;;5074655;28;20074;-64
2023/03/06 10:29:46;;;;;;;5.40;1.58;;;16.60;99.90;;;;;;5074141;28;20016;-64
2023/03/06 10:32:26;;;;;;;5.03;1.30;;;16.80;99.90;;;;;;5074868;28;20036;-64
2023/03/06 10:34:55;;;;;;;2.95;1.10;;;16.80;99.90;;;;;;5075613;28;20047;-64
2023/03/06 10:37:21;;;;;;;3.17;0.82;;;16.90;99.90;;;;;;5074042;28;20057;-65
2023/03/06 10:39:54;;;;;;;8.80;4.60;;;16.90;99.90;;;;;;5074954;28;20025;-64
2023/03/06 10:42:20;;;;;;;4.78;2.03;;;17.10;99.90;;;;;;5073588;28;20032;-64
2023/03/06 10:44:46;;;;;;;5.28;1.50;;;17.10;99.90;;;;;;5074664;28;20074;-66
2023/03/06 10:47:28;;;;;;;3.40;1.08;;;17.10;99.90;;;;;;5073387;28;20043;-64
2023/03/06 10:50:05;;;;;;;3.88;0.80;;;17.00;99.90;;;;;;5074326;28;20021;-63
2023/03/06 10:52:34;;;;;;;2.33;0.90;;;16.90;99.90;;;;;;5074740;28;20044;-63
2023/03/06 10:55:21;;;;;;;1.95;0.80;;;16.80;99.90;;;;;;5074583;28;20035;-63
2023/03/06 10:57:47;;;;;;;4.25;1.00;;;16.80;99.90;;;;;;5073800;28;20036;-63
2023/03/06 11:00:29;;;;;;;3.20;0.85;;;16.70;99.90;;;;;;5072714;28;20033;-62
2023/03/06 11:03:22;;;;;;;3.40;0.75;;;16.70;99.90;;;;;;5072517;28;20058;-64
2023/03/06 11:06:04;;;;;;;3.53;0.70;;;16.70;99.90;;;;;;5074074;28;20031;-63
2023/03/06 11:08:30;;;;;;;4.43;0.90;;;16.70;99.90;;;;;;5073513;28;20020;-64
2023/03/06 11:11:02;;;;;;;1.85;0.60;;;16.70;99.90;;;;;;5076154;28;20037;-65
2023/03/06 11:13:37;;;;;;;2.42;0.70;;;16.70;99.90;;;;;;5077158;28;20028;-63
2023/03/06 11:16:26;;;;;;;1.63;0.80;;;16.60;99.90;;;;;;5077799;28;20028;-63
2023/03/06 11:19:02;;;;;;;6.95;0.75;;;16.60;99.90;;;;;;5077088;28;20033;-63
2023/03/06 11:21:31;;;;;;;3.38;0.60;;;16.60;99.90;;;;;;5076095;28;20067;-63
2023/03/06 11:24:05;;;;;;;4.10;0.82;;;16.60;99.90;;;;;;5077175;28;20060;-63
2023/03/06 11:26:42;;;;;;;1.38;0.60;;;16.50;99.90;;;;;;5074996;28;20063;-63
2023/03/06 11:29:30;;;;;;;4.68;0.70;;;16.50;99.90;;;;;;5077132;28;20028;-63
2023/03/06 11:32:11;;;;;;;2.45;0.55;;;16.50;99.90;;;;;;5076063;28;20029;-63
2023/03/06 11:34:43;;;;;;;1.90;0.70;;;16.50;99.90;;;;;;5077308;28;20099;-63
2023/03/06 11:38:05;;;;;;;2.00;0.70;;;16.40;99.90;;;;;;5077101;28;20024;-63
2023/03/06 11:40:52;;;;;;;1.50;0.68;;;16.40;99.90;;;;;;5034227;28;20139;-63
2023/03/06 11:43:18;;;;;;;;;;;16.40;99.90;;;;;;5074225;28;20040;-63
2023/03/06 11:46:00;;;;;;;1.93;0.67;;;16.40;99.90;;;;;;5077189;28;20208;-64
2023/03/06 11:48:45;;;;;;;2.65;0.73;;;16.40;99.90;;;;;;5076453;28;20265;-63
2023/03/06 11:51:17;;;;;;;2.47;0.60;;;16.40;99.90;;;;;;5076691;28;20079;-63
2023/03/06 11:53:43;;;;;;;1.67;0.60;;;16.40;99.90;;;;;;5076842;28;20029;-63
2023/03/06 11:56:18;;;;;;;1.90;0.63;;;16.40;99.90;;;;;;5075303;28;20032;-64
2023/03/06 11:58:50;;;;;;;1.10;0.40;;;16.40;99.90;;;;;;5076112;28;20032;-63
2023/03/06 12:01:31;;;;;;;2.50;0.60;;;16.40;99.90;;;;;;5076804;28;20327;-63
2023/03/06 12:04:03;;;;;;;3.65;0.60;;;16.40;99.90;;;;;;5076264;28;20021;-64
2023/03/06 12:07:02;;;;;;;1.48;0.70;;;16.40;99.90;;;;;;5076525;28;20488;-63
2023/03/06 12:09:55;;;;;;;2.17;0.60;;;16.40;99.90;;;;;;5076718;28;20131;-63
2023/03/06 12:12:33;;;;;;;0.98;0.40;;;16.40;99.90;;;;;;5055348;28;20332;-63
2023/03/06 12:15:20;;;;;;;2.50;0.65;;;16.40;99.90;;;;;;5063528;28;20029;-63
2023/03/06 12:17:57;;;;;;;0.85;0.60;;;16.40;99.90;;;;;;5073683;28;20038;-63
2023/03/06 12:20:34;;;;;;;3.45;0.68;;;16.40;99.90;;;;;;5076159;28;20032;-63
2023/03/06 12:23:41;;;;;;;0.88;0.45;;;16.40;99.90;;;;;;5075648;28;20478;-63
2023/03/06 12:26:31;;;;;;;1.33;0.57;;;16.40;99.90;;;;;;5068681;28;20075;-63
2023/03/06 12:29:09;;;;;;;1.05;0.60;;;16.40;99.90;;;;;;5075743;28;20021;-64
2023/03/06 12:31:55;;;;;;;1.63;0.60;;;16.40;99.90;;;;;;5075996;28;20045;-63
2023/03/06 12:34:42;;;;;;;1.92;0.50;;;16.40;99.90;;;;;;5075587;28;20060;-67
2023/03/06 12:37:14;;;;;;;0.95;0.55;;;16.50;99.90;;;;;;5055989;28;20052;-63
2023/03/06 12:39:55;;;;;;;3.28;0.80;;;16.40;99.90;;;;;;5055972;28;20024;-64
2023/03/06 12:42:30;;;;;;;1.73;0.70;;;16.50;99.90;;;;;;5054939;28;20029;-62
2023/03/06 12:45:10;;;;;;;3.92;0.80;;;16.50;99.90;;;;;;5056184;28;20021;-63
2023/03/06 12:47:46;;;;;;;1.60;0.60;;;16.40;99.90;;;;;;5073165;28;20048;-64
2023/03/06 12:50:23;;;;;;;2.05;0.68;;;16.50;99.90;;;;;;5075124;28;20021;-61
2023/03/06 12:52:51;;;;;;;0.95;0.52;;;16.50;99.90;;;;;;5075334;28;20032;-62
2023/03/06 12:55:20;;;;;;;1.98;0.63;;;16.50;99.90;;;;;;5075900;28;20153;-63
2023/03/06 12:57:47;;;;;;;1.25;0.70;;;16.50;99.90;;;;;;5074508;28;20366;-64
2023/03/06 13:00:32;;;;;;;1.45;0.70;;;16.60;99.90;;;;;;5076005;28;20025;-63
2023/03/06 13:03:38;;;;;;;1.05;0.50;;;16.60;99.90;;;;;;5074972;28;20036;-63
2023/03/06 13:06:28;;;;;;;0.77;0.50;;;16.60;99.90;;;;;;5064523;28;20039;-63
2023/03/06 13:09:03;;;;;;;1.88;0.80;;;16.60;99.90;;;;;;5075441;28;20115;-63
2023/03/06 13:11:44;;;;;;;2.72;0.50;;;16.60;99.90;;;;;;5061436;28;20128;-63
2023/03/06 13:14:49;;;;;;;1.73;0.70;;;16.60;99.90;;;;;;5069289;28;20419;-63
2023/03/06 13:17:27;;;;;;;1.52;0.70;;;16.60;99.90;;;;;;5074803;28;20081;-63
2023/03/06 13:20:12;;;;;;;2.25;0.70;;;16.60;99.90;;;;;;5074406;28;20048;-63
2023/03/06 13:22:39;;;;;;;1.75;0.60;;;16.60;99.90;;;;;;5074650;28;20427;-63
2023/03/06 13:25:17;;;;;;;0.85;0.60;;;16.60;99.90;;;;;;5057420;28;20115;-63
2023/03/06 13:28:01;;;;;;;2.40;0.73;;;16.60;99.90;;;;;;5074086;28;20035;-63
2023/03/06 13:30:33;;;;;;;1.45;0.65;;;16.60;99.90;;;;;;5074882;28;20058;-63
2023/03/06 13:32:59;;;;;;;2.67;0.70;;;16.60;99.90;;;;;;5074015;28;20462;-64
2023/03/06 13:35:28;;;;;;;1.75;0.50;;;16.60;99.90;;;;;;5074936;28;20124;-63
2023/03/06 13:37:55;;;;;;;0.93;0.30;;;16.60;99.90;;;;;;5074802;28;20025;-63
2023/03/06 13:40:32;;;;;;;1.50;0.60;;;16.60;99.90;;;;;;5075153;28;20024;-63
2023/03/06 13:43:05;;;;;;;1.30;0.60;;;16.60;99.90;;;;;;5074253;28;20021;-63
2023/03/06 13:45:43;;;;;;;1.27;0.50;;;16.60;99.90;;;;;;5074746;28;20052;-63
2023/03/06 13:48:31;;;;;;;1.85;0.73;;;16.60;99.90;;;;;;5074271;28;20036;-63
2023/03/06 13:51:12;;;;;;;2.20;0.60;;;16.60;99.90;;;;;;5074806;28;20375;-63
2023/03/06 13:54:04;;;;;;;1.10;0.40;;;16.60;99.90;;;;;;5074167;28;20419;-63
2023/03/06 13:56:52;;;;;;;0.68;0.45;;;16.60;99.90;;;;;;5073912;28;20021;-63
2023/03/06 13:59:42;;;;;;;1.40;0.60;;;16.60;99.90;;;;;;5074293;28;20035;-63
2023/03/06 14:02:36;;;;;;;1.38;0.50;;;16.50;99.90;;;;;;5074149;28;20028;-63
2023/03/06 14:05:08;;;;;;;1.67;0.50;;;16.60;99.90;;;;;;5074862;28;20633;-62
2023/03/06 14:07:40;;;;;;;7.18;5.75;;;16.50;99.90;;;;;;5071151;28;20063;-61
2023/03/06 14:10:12;;;;;;;3.40;1.42;;;16.90;99.90;;;;;;5072442;28;20028;-62
2023/03/06 14:12:40;;;;;;;4.22;1.10;;;17.10;99.90;;;;;;5052191;28;20028;-62
2023/03/06 14:15:20;;;;;;;1.58;0.90;;;17.20;99.90;;;;;;5054628;28;20035;-62
2023/03/06 14:18:12;;;;;;;1.42;0.57;;;17.30;99.90;;;;;;5057956;28;20029;-63
2023/03/06 14:20:37;;;;;;;0.85;0.60;;;17.30;99.90;;;;;;5065674;28;20567;-62
2023/03/06 14:23:34;;;;;;;1.40;0.52;;;17.30;99.90;;;;;;5073880;28;20118;-62
2023/03/06 14:26:16;;;;;;;2.35;0.68;;;17.40;99.90;;;;;;5074094;28;20020;-63
2023/03/06 14:28:51;;;;;;;1.23;0.55;;;17.40;99.90;;;;;;5073577;28;20032;-62
2023/03/06 14:31:19;;;;;;;0.63;0.43;;;17.40;99.90;;;;;;5074536;28;20067;-62
2023/03/06 14:34:21;;;;;;;2.35;0.60;;;17.40;99.90;;;;;;5073239;28;20025;-63
2023/03/06 14:36:49;;;;;;;1.50;0.75;;;17.30;99.90;;;;;;5067115;28;20037;-61
2023/03/06 14:39:27;;;;;;;1.45;0.70;;;17.30;99.90;;;;;;5073121;28;20126;-62
2023/03/06 14:42:24;;;;;;;2.40;0.60;;;17.20;99.90;;;;;;5073786;28;20039;-62
2023/03/06 14:45:05;;;;;;;4.22;0.73;;;17.20;99.90;;;;;;5074572;28;20032;-63
2023/03/06 14:47:33;;;;;;;4.25;0.70;;;17.20;99.90;;;;;;5064086;28;20029;-66
2023/03/06 14:50:20;;;;;;;2.80;0.60;;;17.10;99.90;;;;;;5066766;28;20071;-62
2023/03/06 14:53:03;;;;;;;4.90;2.13;;;17.20;99.90;;;;;;5059836;28;20182;-63
2023/03/06 14:55:33;;;;;;;2.72;0.93;;;17.60;99.90;;;;;;5075638;28;20036;-62
2023/03/06 14:58:11;;;;;;;1.88;0.80;;;17.70;99.90;;;;;;5071466;28;20020;-63
2023/03/06 15:00:41;;;;;;;1.30;0.50;;;17.70;99.90;;;;;;5076425;28;20020;-63
2023/03/06 15:03:16;;;;;;;1.27;0.60;;;17.70;99.90;;;;;;5039918;28;20104;-62
2023/03/06 15:05:44;;;;;;;1.05;0.63;;;17.70;99.90;;;;;;5057752;28;20104;-63
2023/03/06 15:08:17;;;;;;;2.10;0.50;;;17.60;99.90;;;;;;5066475;28;20059;-62
2023/03/06 15:11:04;;;;;;;3.20;0.70;;;17.60;99.90;;;;;;5064431;28;20090;-63
2023/03/06 15:13:32;;;;;;;1.23;0.57;;;17.60;99.90;;;;;;5057520;28;20025;-63
2023/03/06 15:16:23;;;;;;;1.73;0.70;;;17.60;99.90;;;;;;5072367;28;20106;-63
2023/03/06 15:18:59;;;;;;;0.57;0.52;;;17.50;99.90;;;;;;5056168;28;20443;-63
2023/03/06 15:21:28;;;;;;;1.45;0.80;;;17.50;99.90;;;;;;5055961;28;20033;-63
2023/03/06 15:23:56;;;;;;;1.33;0.60;;;17.50;99.90;;;;;;5055932;28;20045;-63
2023/03/06 15:26:32;;;;;;;1.90;0.90;;;17.50;99.90;;;;;;5057189;28;20029;-63
2023/03/06 15:29:00;;;;;;;;;;;17.50;99.90;;;;;;5056882;28;20044;-63
2023/03/06 15:31:31;;;;;;;0.88;0.60;;;17.40;99.90;;;;;;5079178;28;19944;-63
2023/03/06 15:34:08;;;;;;;1.63;0.63;;;17.40;99.90;;;;;;5065721;28;20060;-63
2023/03/06 15:36:48;;;;;;;1.25;0.70;;;17.40;99.90;;;;;;5075708;28;20032;-63
2023/03/06 15:40:08;;;;;;;1.73;0.70;;;17.40;99.90;;;;;;5067879;28;20112;-63
2023/03/06 15:43:42;;;;;;;0.98;0.52;;;17.40;99.90;;;;;;5011166;28;20068;-63
2023/03/06 15:46:40;;;;;;;2.67;0.75;;;17.40;99.90;;;;;;5057348;28;20108;-63
2023/03/06 15:49:13;;;;;;;0.73;0.60;;;17.40;99.90;;;;;;5067924;28;20029;-65
2023/03/06 15:51:39;;;;;;;1.42;0.60;;;17.30;99.90;;;;;;5054884;28;20068;-65
2023/03/06 15:54:05;;;;;;;1.17;0.70;;;17.30;99.90;;;;;;5068530;28;20044;-64
2023/03/06 15:56:35;;;;;;;0.88;0.60;;;17.30;99.90;;;;;;5075624;28;20016;-63
2023/03/06 15:59:02;;;;;;;1.48;0.60;;;17.40;99.90;;;;;;5070977;28;20024;-63
2023/03/06 16:01:28;;;;;;;2.38;0.55;;;17.30;99.90;;;;;;5059027;28;20031;-64
2023/03/06 16:03:53;;;;;;;1.55;0.60;;;17.30;99.90;;;;;;5076469;28;20405;-64
2023/03/06 16:06:23;;;;;;;1.73;0.60;;;17.30;99.90;;;;;;5074746;28;20037;-64
2023/03/06 16:08:49;;;;;;;0.85;0.60;;;17.30;99.90;;;;;;5075695;28;20073;-64
2023/03/06 16:11:28;;;;;;;1.50;0.80;;;17.20;99.90;;;;;;5075325;28;20036;-64
2023/03/06 16:13:56;;;;;;;1.45;0.70;;;17.20;99.90;;;;;;5074694;28;20024;-63
2023/03/06 16:16:33;;;;;;;0.93;0.55;;;17.20;99.90;;;;;;5076790;28;20028;-63
2023/03/06 16:19:05;;;;;;;1.75;0.90;;;17.20;99.90;;;;;;5077016;28;20029;-63
2023/03/06 16:21:31;;;;;;;2.97;1.05;;;17.20;99.90;;;;;;5074670;28;20086;-63
2023/03/06 16:23:57;;;;;;;2.03;1.00;;;17.10;99.90;;;;;;5075049;28;20041;-63
2023/03/06 16:26:33;;;;;;;3.05;1.20;;;17.10;99.90;;;;;;5076266;28;20081;-63
2023/03/06 16:28:59;;;;;;;3.72;1.40;;;17.10;99.90;;;;;;5076162;28;20033;-63
2023/03/06 16:31:25;;;;;;;3.30;1.63;;;17.10;99.90;;;;;;5076877;28;20028;-63
2023/03/06 16:33:51;;;;;;;4.82;1.33;;;17.10;99.90;;;;;;5076282;28;20037;-63
2023/03/06 16:36:22;;;;;;;3.35;1.40;;;17.10;99.90;;;;;;5076041;28;20036;-63
2023/03/06 16:38:49;;;;;;;3.55;1.60;;;17.00;99.90;;;;;;5076562;28;20078;-63
2023/03/06 16:41:17;;;;;;;4.45;2.05;;;17.00;99.90;;;;;;5076347;28;20123;-63
2023/03/06 16:43:43;;;;;;;7.03;2.50;;;17.00;99.90;;;;;;5076267;28;20065;-63
2023/03/06 16:46:21;;;;;;;8.73;2.75;;;17.00;99.90;;;;;;5076694;28;20071;-63
2023/03/06 16:48:47;;;;;;;7.93;3.22;;;17.00;99.90;;;;;;5076054;28;20427;-63
2023/03/06 16:51:19;;;;;;;6.53;2.85;;;17.00;99.90;;;;;;5058505;28;20052;-66
2023/03/06 16:53:45;;;;;;;8.23;2.80;;;17.00;99.90;;;;;;5073354;28;20032;-64
2023/03/06 16:56:13;;;;;;;9.13;2.80;;;17.00;99.90;;;;;;5073615;28;20028;-63
2023/03/06 16:58:40;;;;;;;8.55;2.80;;;16.90;99.90;;;;;;5073745;28;20098;-63
2023/03/06 17:01:07;;;;;;;6.80;3.20;;;16.90;99.90;;;;;;5073500;28;20037;-63
2023/03/06 17:03:33;;;;;;;6.30;2.80;;;16.90;99.90;;;;;;5072943;28;20059;-63
2023/03/06 17:06:00;;;;;;;9.18;3.10;;;16.90;99.90;;;;;;5056079;28;20389;-64
2023/03/06 17:08:26;;;;;;;6.63;2.65;;;16.90;99.90;;;;;;5073032;28;20032;-63
2023/03/06 17:10:52;;;;;;;8.57;3.00;;;16.90;99.90;;;;;;5064973;28;20084;-63
2023/03/06 17:13:18;;;;;;;7.43;2.97;;;16.90;99.90;;;;;;5063500;28;20103;-63
2023/03/06 17:15:58;;;;;;;6.55;2.40;;;16.90;99.90;;;;;;5072522;28;20056;-63
2023/03/06 17:18:25;;;;;;;6.18;2.60;;;16.90;99.90;;;;;;5073217;28;20450;-63
2023/03/06 17:20:52;;;;;;;8.00;2.75;;;16.90;99.90;;;;;;5073376;28;20033;-64
2023/03/06 17:23:21;;;;;;;8.43;2.85;;;16.90;99.90;;;;;;5071953;28;20340;-64
2023/03/06 17:25:47;;;;;;;7.00;2.72;;;16.90;99.90;;;;;;5070261;28;20119;-64
2023/03/06 17:28:13;;;;;;;9.63;2.72;;;16.80;99.90;;;;;;5071790;28;20116;-64
2023/03/06 17:30:39;;;;;;;6.63;2.45;;;16.80;99.90;;;;;;5072998;28;20037;-63
2023/03/06 17:33:05;;;;;;;7.05;2.67;;;16.80;99.90;;;;;;5071933;28;20075;-62
2023/03/06 17:35:34;;;;;;;6.93;2.33;;;16.80;99.90;;;;;;5072723;28;20032;-62
2023/03/06 17:38:00;;;;;;;6.95;2.60;;;16.80;99.90;;;;;;5072043;28;20436;-64
2023/03/06 17:40:26;;;;;;;5.18;2.22;;;16.80;99.90;;;;;;5072400;28;20039;-64
2023/03/06 17:42:52;;;;;;;8.82;2.80;;;16.80;99.90;;;;;;5071670;28;20036;-68
2023/03/06 17:45:17;;;;;;;6.32;2.28;;;16.80;99.90;;;;;;5072333;28;20043;-62
2023/03/06 17:47:43;;;;;;;7.20;2.47;;;16.80;99.90;;;;;;5070964;28;20039;-63
2023/03/06 17:50:10;;;;;;;5.47;2.38;;;16.70;99.90;;;;;;5072219;28;20032;-64
2023/03/06 17:52:37;;;;;;;9.65;2.20;;;16.70;99.90;;;;;;5072419;28;20086;-63
2023/03/06 17:55:05;;;;;;;3.88;2.00;;;16.70;99.90;;;;;;5087964;28;20048;-63
2023/03/06 17:57:30;;;;;;;5.00;2.40;;;16.70;99.90;;;;;;5091708;28;20033;-64
2023/03/06 17:59:56;;;;;;;6.00;2.42;;;16.70;99.90;;;;;;5092340;28;20035;-63
2023/03/06 18:02:23;;;;;;;4.85;1.95;;;16.70;99.90;;;;;;5070542;28;20182;-63
2023/03/06 18:04:49;;;;;;;6.35;2.55;;;16.70;99.90;;;;;;5072194;28;20445;-63
2023/03/06 18:07:15;;;;;;;5.57;2.13;;;16.70;99.90;;;;;;5071843;28;20032;-63
2023/03/06 18:09:41;;;;;;;4.75;1.95;;;16.70;99.90;;;;;;5072429;28;20082;-63
2023/03/06 18:12:08;;;;;;;5.78;2.28;;;16.70;99.90;;;;;;5053995;28;20079;-62
2023/03/06 18:14:35;;;;;;;3.85;1.95;;;16.70;99.90;;;;;;5071501;28;20033;-61
2023/03/06 18:17:02;;;;;;;4.68;2.25;;;16.70;99.90;;;;;;5071913;28;20030;-63
2023/03/06 18:19:28;;;;;;;4.63;2.22;;;16.60;99.90;;;;;;5071850;28;20063;-63
2023/03/06 18:21:54;;;;;;;4.43;1.80;;;16.60;99.90;;;;;;5072036;28;20068;-62
2023/03/06 18:24:20;;;;;;;4.28;2.00;;;16.60;99.90;;;;;;5069037;28;20041;-63
2023/03/06 18:26:46;;;;;;;3.50;1.75;;;16.60;99.90;;;;;;5070278;28;20520;-62
2023/03/06 18:29:12;;;;;;;4.57;2.42;;;16.60;99.90;;;;;;5071208;28;20111;-62
2023/03/06 18:31:40;;;;;;;5.40;2.08;;;16.60;99.90;;;;;;5072399;28;20115;-64
2023/03/06 18:34:12;;;;;;;4.18;2.17;;;16.60;99.90;;;;;;5072070;28;20504;-62
2023/03/06 18:36:39;;;;;;;4.38;2.22;;;16.60;99.90;;;;;;5071369;28;20021;-63
2023/03/06 18:39:07;;;;;;;3.85;1.92;;;16.60;99.90;;;;;;5067643;28;20028;-63
2023/03/06 18:41:33;;;;;;;4.35;1.80;;;16.60;99.90;;;;;;5057698;28;20427;-64
2023/03/06 18:44:00;;;;;;;4.25;1.85;;;16.50;99.90;;;;;;5066798;28;20056;-65
2023/03/06 18:46:33;;;;;;;4.07;2.15;;;16.50;99.90;;;;;;5072201;28;20032;-62
2023/03/06 18:48:59;;;;;;;4.32;1.95;;;16.50;99.90;;;;;;5070980;28;20081;-68
2023/03/06 18:51:26;;;;;;;4.50;1.95;;;16.50;99.90;;;;;;5054669;28;20131;-62
2023/03/06 18:53:52;;;;;;;5.70;1.70;;;16.50;99.90;;;;;;5072202;28;20461;-64
2023/03/06 18:56:20;;;;;;;4.45;1.60;;;16.50;99.90;;;;;;5071593;28;20040;-62
2023/03/06 18:58:47;;;;;;;3.35;1.67;;;16.50;99.90;;;;;;5071997;28;20117;-63
2023/03/06 19:01:13;;;;;;;4.78;2.05;;;16.50;99.90;;;;;;5072119;28;20111;-62
2023/03/06 19:03:39;;;;;;;3.70;2.00;;;16.50;99.90;;;;;;5071643;28;20509;-63
2023/03/06 19:06:07;;;;;;;3.08;1.80;;;16.50;99.90;;;;;;5071775;28;20028;-64
2023/03/06 19:08:34;;;;;;;3.60;1.83;;;16.50;99.90;;;;;;5071968;28;20086;-63
2023/03/06 19:11:05;;;;;;;4.38;1.67;;;16.50;99.90;;;;;;5062716;28;20056;-63
2023/03/06 19:13:31;;;;;;;3.15;1.65;;;16.50;99.90;;;;;;5050528;28;20033;-63
2023/03/06 19:15:57;;;;;;;3.75;1.73;;;16.40;99.90;;;;;;5067345;28;20101;-63
2023/03/06 19:18:25;;;;;;;4.00;1.67;;;16.50;99.90;;;;;;5071538;28;20032;-63
2023/03/06 19:20:51;;;;;;;3.65;1.50;;;16.50;99.90;;;;;;5072089;28;20025;-62
2023/03/06 19:23:18;;;;;;;4.03;1.88;;;16.40;99.90;;;;;;5070548;28;20066;-63
2023/03/06 19:25:57;;;;;;;3.85;1.88;;;16.40;99.90;;;;;;5069316;28;20116;-63
2023/03/06 19:28:23;;;;;;;4.00;1.90;;;16.50;99.90;;;;;;5070409;28;20036;-63
2023/03/06 19:30:49;;;;;;;3.65;1.90;;;16.40;99.90;;;;;;5073566;28;20072;-62
2023/03/06 19:33:16;;;;;;;2.63;1.73;;;16.40;99.90;;;;;;5075346;28;20059;-62
2023/03/06 19:35:42;;;;;;;3.72;2.00;;;16.40;99.90;;;;;;5077790;28;20040;-62
2023/03/06 19:38:09;;;;;;;5.32;2.00;;;16.40;99.90;;;;;;5077151;28;20098;-63
2023/03/06 19:40:35;;;;;;;3.30;1.65;;;16.40;99.90;;;;;;5076685;28;20115;-63